createdAt,value
2023-09-23T00:00:29.965Z,0.00
2023-09-23T00:01:30.015Z,0.00
2023-09-23T00:02:30.124Z,0.00
2023-09-23T00:03:30.114Z,0.00
2023-09-23T00:04:30.198Z,0.00
2023-09-23T00:05:30.103Z,0.00
2023-09-23T00:06:30.094Z,0.00
2023-09-23T00:07:30.122Z,0.00
2023-09-23T00:08:30.181Z,0.00
2023-09-23T00:09:30.160Z,0.00
2023-09-23T00:10:30.185Z,0.00
2023-09-23T00:11:30.208Z,0.00
2023-09-23T00:12:30.215Z,0.00
2023-09-23T00:13:30.274Z,0.00
2023-09-23T00:14:30.315Z,0.00
2023-09-23T00:15:30.299Z,0.00
2023-09-23T00:16:30.355Z,0.00
2023-09-23T00:17:30.434Z,0.00
2023-09-23T00:18:30.395Z,0.00
2023-09-23T00:19:30.414Z,0.00
2023-09-23T00:20:30.431Z,0.00
2023-09-23T00:21:30.411Z,0.00
2023-09-23T00:22:30.429Z,0.00
2023-09-23T00:23:30.520Z,0.00
2023-09-23T00:24:30.471Z,0.00
2023-09-23T00:25:30.489Z,0.00
2023-09-23T00:26:30.558Z,0.00
2023-09-23T00:27:30.536Z,0.00
2023-09-23T00:28:30.555Z,0.00
2023-09-23T00:29:30.605Z,0.00
2023-09-23T00:30:30.638Z,0.00
2023-09-23T00:31:30.649Z,0.00
2023-09-23T00:32:30.663Z,0.00
2023-09-23T00:33:30.652Z,0.00
2023-09-23T00:34:30.686Z,0.00
2023-09-23T00:35:30.692Z,0.00
2023-09-23T00:36:30.741Z,0.00
2023-09-23T00:37:30.862Z,0.00
2023-09-23T00:38:30.790Z,0.00
2023-09-23T00:39:30.783Z,0.00
2023-09-23T00:40:30.816Z,0.00
2023-09-23T00:41:30.827Z,0.00
2023-09-23T00:42:30.851Z,0.00
2023-09-23T00:43:30.892Z,0.00
2023-09-23T00:44:30.885Z,0.00
2023-09-23T00:45:31.036Z,0.00
2023-09-23T00:46:30.930Z,0.00
2023-09-23T00:47:30.965Z,0.00
2023-09-23T00:48:30.992Z,0.00
2023-09-23T00:49:30.982Z,0.00
2023-09-23T00:50:31.317Z,0.00
2023-09-23T00:51:31.025Z,0.00
2023-09-23T00:52:31.083Z,0.00
2023-09-23T00:53:31.142Z,0.00
2023-09-23T00:54:31.110Z,0.00
2023-09-23T00:55:31.134Z,0.00
2023-09-23T00:56:31.124Z,0.00
2023-09-23T00:57:31.158Z,0.00
2023-09-23T00:58:31.216Z,0.00
2023-09-23T00:59:31.209Z,0.00
2023-09-23T01:00:31.212Z,0.00
2023-09-23T01:01:31.244Z,0.00
2023-09-23T01:02:31.399Z,0.00
2023-09-23T01:03:31.380Z,0.00
2023-09-23T01:04:31.292Z,0.00
2023-09-23T01:05:31.332Z,0.00
2023-09-23T01:06:31.331Z,0.00
2023-09-23T01:07:31.356Z,0.00
2023-09-23T01:08:31.406Z,0.00
2023-09-23T01:09:31.426Z,0.00
2023-09-23T01:10:31.448Z,0.00
2023-09-23T01:11:31.453Z,0.00
2023-09-23T01:12:31.475Z,0.00
2023-09-23T01:13:31.935Z,0.00
2023-09-23T01:14:31.528Z,0.00
2023-09-23T01:15:31.535Z,0.00
2023-09-23T01:16:31.541Z,0.00
2023-09-23T01:17:31.624Z,0.00
2023-09-23T01:18:31.586Z,0.00
2023-09-23T01:19:31.684Z,0.00
2023-09-23T01:20:31.624Z,0.00
2023-09-23T01:21:31.659Z,0.00
2023-09-23T01:22:31.666Z,0.00
2023-09-23T01:23:31.703Z,0.00
2023-09-23T01:24:31.735Z,0.00
2023-09-23T01:25:31.735Z,0.00
2023-09-23T01:26:31.778Z,0.00
2023-09-23T01:27:31.787Z,0.00
2023-09-23T01:28:31.809Z,0.00
2023-09-23T01:29:31.810Z,0.00
2023-09-23T01:30:31.889Z,0.00
2023-09-23T01:31:31.914Z,0.00
2023-09-23T01:32:31.974Z,0.00
2023-09-23T01:33:31.986Z,0.00
2023-09-23T01:34:31.915Z,0.00
2023-09-23T01:35:31.969Z,0.00
2023-09-23T01:36:31.946Z,0.00
2023-09-23T01:37:31.976Z,0.00
2023-09-23T01:38:32.011Z,0.00
2023-09-23T01:39:32.008Z,0.00
2023-09-23T01:40:32.080Z,0.00
2023-09-23T01:41:32.049Z,0.00
2023-09-23T01:42:32.063Z,0.00
2023-09-23T01:43:32.101Z,0.00
2023-09-23T01:44:32.112Z,0.00
2023-09-23T01:45:32.166Z,0.00
2023-09-23T01:46:32.228Z,0.00
2023-09-23T01:47:32.303Z,0.00
2023-09-23T01:48:32.191Z,0.00
2023-09-23T01:49:32.205Z,0.00
2023-09-23T01:50:32.229Z,0.00
2023-09-23T01:51:32.286Z,0.00
2023-09-23T01:52:32.294Z,0.00
2023-09-23T01:53:32.286Z,0.00
2023-09-23T01:54:32.324Z,0.00
2023-09-23T01:55:32.344Z,0.00
2023-09-23T01:56:32.787Z,0.00
2023-09-23T01:57:32.365Z,0.00
2023-09-23T01:58:32.385Z,0.00
2023-09-23T01:59:32.401Z,0.00
2023-09-23T02:00:33.057Z,0.00
2023-09-23T02:01:32.441Z,0.00
2023-09-23T02:02:32.620Z,0.00
2023-09-23T02:03:32.580Z,0.00
2023-09-23T02:04:32.518Z,0.00
2023-09-23T02:05:32.527Z,0.00
2023-09-23T02:06:32.537Z,0.00
2023-09-23T02:07:32.605Z,0.00
2023-09-23T02:08:32.596Z,0.00
2023-09-23T02:09:32.604Z,0.00
2023-09-23T02:10:32.634Z,0.00
2023-09-23T02:11:32.668Z,0.00
2023-09-23T02:12:33.563Z,0.00
2023-09-23T02:13:32.677Z,0.00
2023-09-23T02:14:32.698Z,0.00
2023-09-23T02:15:32.725Z,0.00
2023-09-23T02:16:32.802Z,0.00
2023-09-23T02:17:32.838Z,0.00
2023-09-23T02:18:32.785Z,0.00
2023-09-23T02:19:32.833Z,0.00
2023-09-23T02:20:32.824Z,0.00
2023-09-23T02:21:32.839Z,0.00
2023-09-23T02:22:34.066Z,0.00
2023-09-23T02:23:32.930Z,0.00
2023-09-23T02:24:32.929Z,0.00
2023-09-23T02:25:32.920Z,0.00
2023-09-23T02:26:32.955Z,0.00
2023-09-23T02:27:33.006Z,0.00
2023-09-23T02:28:33.021Z,0.00
2023-09-23T02:29:33.048Z,0.00
2023-09-23T02:30:33.049Z,0.00
2023-09-23T02:31:33.045Z,0.00
2023-09-23T02:32:33.081Z,0.00
2023-09-23T02:33:33.076Z,0.00
2023-09-23T02:34:33.164Z,0.00
2023-09-23T02:35:33.121Z,0.00
2023-09-23T02:36:33.161Z,0.00
2023-09-23T02:37:33.557Z,0.00
2023-09-23T02:38:33.199Z,0.00
2023-09-23T02:39:33.241Z,0.00
2023-09-23T02:40:33.237Z,0.00
2023-09-23T02:41:33.246Z,0.00
2023-09-23T02:42:33.277Z,0.00
2023-09-23T02:43:33.307Z,0.00
2023-09-23T02:44:33.342Z,0.00
2023-09-23T02:45:33.318Z,0.00
2023-09-23T02:46:33.356Z,0.00
2023-09-23T02:47:33.465Z,0.00
2023-09-23T02:48:33.379Z,0.00
2023-09-23T02:49:33.426Z,0.00
2023-09-23T02:50:33.425Z,0.00
2023-09-23T02:51:33.474Z,0.00
2023-09-23T02:52:33.457Z,0.00
2023-09-23T02:53:33.489Z,0.00
2023-09-23T02:54:33.520Z,0.00
2023-09-23T02:55:33.553Z,0.00
2023-09-23T02:56:33.538Z,0.00
2023-09-23T02:57:33.567Z,0.00
2023-09-23T02:58:33.620Z,0.00
2023-09-23T02:59:33.602Z,0.00
2023-09-23T03:00:33.615Z,0.00
2023-09-23T03:01:33.657Z,0.00
2023-09-23T03:02:33.829Z,0.00
2023-09-23T03:03:33.779Z,0.00
2023-09-23T03:04:33.712Z,0.00
2023-09-23T03:05:33.806Z,0.00
2023-09-23T03:06:33.735Z,0.00
2023-09-23T03:07:33.764Z,0.00
2023-09-23T03:08:33.810Z,0.00
2023-09-23T03:09:33.894Z,0.00
2023-09-23T03:10:33.909Z,0.00
2023-09-23T03:11:33.861Z,0.00
2023-09-23T03:12:33.849Z,0.00
2023-09-23T03:13:33.869Z,0.00
2023-09-23T03:14:33.911Z,0.00
2023-09-23T03:15:33.955Z,0.00
2023-09-23T03:16:34.212Z,0.00
2023-09-23T03:17:34.021Z,0.00
2023-09-23T03:18:33.979Z,0.00
2023-09-23T03:19:33.997Z,0.00
2023-09-23T03:20:34.055Z,0.00
2023-09-23T03:21:34.021Z,0.00
2023-09-23T03:22:34.049Z,0.00
2023-09-23T03:23:34.090Z,0.00
2023-09-23T03:24:34.082Z,0.00
2023-09-23T03:25:34.099Z,0.00
2023-09-23T03:26:34.207Z,0.00
2023-09-23T03:27:34.132Z,0.00
2023-09-23T03:28:34.150Z,0.00
2023-09-23T03:29:34.279Z,0.00
2023-09-23T03:30:34.243Z,0.00
2023-09-23T03:31:34.243Z,0.00
2023-09-23T03:32:34.401Z,0.00
2023-09-23T03:33:34.307Z,0.00
2023-09-23T03:34:34.294Z,0.00
2023-09-23T03:35:34.288Z,0.00
2023-09-23T03:36:34.331Z,0.00
2023-09-23T03:37:34.319Z,0.00
2023-09-23T03:38:34.348Z,0.00
2023-09-23T03:39:34.365Z,0.00
2023-09-23T03:40:34.384Z,0.00
2023-09-23T03:41:34.430Z,0.00
2023-09-23T03:42:34.416Z,0.00
2023-09-23T03:43:34.448Z,0.00
2023-09-23T03:44:34.459Z,0.00
2023-09-23T03:45:34.483Z,0.00
2023-09-23T03:46:34.527Z,0.00
2023-09-23T03:47:34.549Z,0.00
2023-09-23T03:48:34.552Z,0.00
2023-09-23T03:49:34.554Z,0.00
2023-09-23T03:50:34.650Z,0.00
2023-09-23T03:51:34.619Z,0.00
2023-09-23T03:52:34.613Z,0.00
2023-09-23T03:53:34.632Z,0.00
2023-09-23T03:54:34.749Z,0.00
2023-09-23T03:55:34.709Z,0.00
2023-09-23T03:56:34.745Z,0.00
2023-09-23T03:57:34.709Z,0.00
2023-09-23T03:58:34.759Z,0.00
2023-09-23T03:59:34.760Z,0.00
2023-09-23T04:00:34.789Z,0.00
2023-09-23T04:01:34.942Z,0.00
2023-09-23T04:02:34.874Z,0.00
2023-09-23T04:03:34.837Z,0.00
2023-09-23T04:04:34.846Z,0.00
2023-09-23T04:05:34.863Z,0.00
2023-09-23T04:06:34.924Z,0.00
2023-09-23T04:07:34.907Z,0.00
2023-09-23T04:08:34.946Z,0.00
2023-09-23T04:09:34.949Z,0.00
2023-09-23T04:10:34.966Z,0.00
2023-09-23T04:11:35.012Z,0.00
2023-09-23T04:12:35.015Z,0.00
2023-09-23T04:13:35.080Z,0.00
2023-09-23T04:14:35.042Z,0.00
2023-09-23T04:15:35.064Z,0.00
2023-09-23T04:16:35.113Z,0.00
2023-09-23T04:17:35.162Z,0.00
2023-09-23T04:18:35.164Z,0.00
2023-09-23T04:19:35.146Z,0.00
2023-09-23T04:20:35.156Z,0.00
2023-09-23T04:21:35.225Z,0.00
2023-09-23T04:22:35.196Z,0.00
2023-09-23T04:23:35.244Z,0.00
2023-09-23T04:24:35.257Z,0.00
2023-09-23T04:25:35.250Z,0.00
2023-09-23T04:26:35.314Z,0.00
2023-09-23T04:27:35.291Z,0.00
2023-09-23T04:28:35.342Z,0.00
2023-09-23T04:29:35.327Z,0.00
2023-09-23T04:30:35.354Z,0.00
2023-09-23T04:31:35.373Z,0.00
2023-09-23T04:32:35.453Z,0.00
2023-09-23T04:33:35.472Z,0.00
2023-09-23T04:34:35.424Z,0.00
2023-09-23T04:35:35.442Z,0.00
2023-09-23T04:36:35.466Z,0.00
2023-09-23T04:37:35.479Z,0.00
2023-09-23T04:38:35.555Z,0.00
2023-09-23T04:39:35.555Z,0.00
2023-09-23T04:40:35.537Z,0.00
2023-09-23T04:41:35.562Z,0.00
2023-09-23T04:42:35.597Z,0.00
2023-09-23T04:43:35.622Z,0.00
2023-09-23T04:44:35.631Z,0.00
2023-09-23T04:45:35.688Z,0.00
2023-09-23T04:46:35.668Z,0.00
2023-09-23T04:47:35.676Z,0.00
2023-09-23T04:48:35.746Z,0.00
2023-09-23T04:49:35.717Z,0.00
2023-09-23T04:50:35.753Z,0.00
2023-09-23T04:51:35.812Z,0.00
2023-09-23T04:52:35.779Z,0.00
2023-09-23T04:53:35.791Z,0.00
2023-09-23T04:54:35.814Z,0.00
2023-09-23T04:55:35.828Z,0.00
2023-09-23T04:56:35.910Z,0.00
2023-09-23T04:57:35.867Z,0.00
2023-09-23T04:58:35.891Z,0.00
2023-09-23T04:59:35.929Z,0.00
2023-09-23T05:00:35.944Z,0.00
2023-09-23T05:01:36.001Z,0.00
2023-09-23T05:02:36.343Z,0.00
2023-09-23T05:03:36.016Z,0.00
2023-09-23T05:04:36.218Z,0.00
2023-09-23T05:05:36.254Z,0.00
2023-09-23T05:06:36.091Z,0.00
2023-09-23T05:07:36.100Z,0.00
2023-09-23T05:08:36.102Z,0.00
2023-09-23T05:09:36.103Z,0.00
2023-09-23T05:10:36.127Z,0.00
2023-09-23T05:11:36.142Z,0.00
2023-09-23T05:12:36.211Z,0.00
2023-09-23T05:13:37.111Z,0.00
2023-09-23T05:14:36.202Z,0.00
2023-09-23T05:15:36.270Z,0.00
2023-09-23T05:16:36.251Z,0.00
2023-09-23T05:17:36.325Z,0.00
2023-09-23T05:18:36.324Z,0.00
2023-09-23T05:19:36.392Z,0.00
2023-09-23T05:20:36.321Z,0.00
2023-09-23T05:21:36.356Z,0.00
2023-09-23T05:22:36.397Z,0.00
2023-09-23T05:23:36.546Z,0.00
2023-09-23T05:24:36.403Z,0.00
2023-09-23T05:25:36.414Z,0.00
2023-09-23T05:26:37.398Z,0.00
2023-09-23T05:27:36.556Z,0.00
2023-09-23T05:28:36.479Z,0.00
2023-09-23T05:29:36.508Z,0.00
2023-09-23T05:30:36.641Z,0.00
2023-09-23T05:31:36.530Z,0.00
2023-09-23T05:32:36.680Z,0.00
2023-09-23T05:33:36.682Z,0.00
2023-09-23T05:34:36.593Z,0.00
2023-09-23T05:35:36.617Z,0.00
2023-09-23T05:36:36.633Z,0.00
2023-09-23T05:37:36.665Z,0.00
2023-09-23T05:38:37.621Z,0.00
2023-09-23T05:39:36.688Z,0.00
2023-09-23T05:40:36.807Z,0.00
2023-09-23T05:41:36.751Z,0.00
2023-09-23T05:42:37.039Z,0.00
2023-09-23T05:43:36.763Z,0.00
2023-09-23T05:44:36.820Z,0.00
2023-09-23T05:45:36.865Z,0.00
2023-09-23T05:46:36.964Z,0.00
2023-09-23T05:47:36.981Z,0.00
2023-09-23T05:48:36.922Z,0.00
2023-09-23T05:49:36.887Z,0.00
2023-09-23T05:50:36.912Z,0.00
2023-09-23T05:51:36.920Z,0.00
2023-09-23T05:52:36.947Z,0.00
2023-09-23T05:53:36.996Z,0.00
2023-09-23T05:54:36.995Z,0.00
2023-09-23T05:55:37.011Z,0.00
2023-09-23T05:56:37.036Z,0.00
2023-09-23T05:57:37.039Z,0.00
2023-09-23T05:58:37.107Z,0.00
2023-09-23T05:59:37.093Z,0.00
2023-09-23T06:00:37.134Z,0.00
2023-09-23T06:01:37.128Z,0.00
2023-09-23T06:02:37.223Z,0.00
2023-09-23T06:03:37.266Z,0.00
2023-09-23T06:04:37.192Z,0.00
2023-09-23T06:05:37.251Z,0.00
2023-09-23T06:06:37.217Z,0.00
2023-09-23T06:07:37.243Z,0.00
2023-09-23T06:08:37.290Z,0.00
2023-09-23T06:09:37.277Z,0.00
2023-09-23T06:10:38.159Z,0.00
2023-09-23T06:11:37.400Z,0.00
2023-09-23T06:12:37.382Z,0.00
2023-09-23T06:13:37.391Z,0.00
2023-09-23T06:14:37.445Z,0.00
2023-09-23T06:15:37.607Z,0.00
2023-09-23T06:16:37.462Z,0.00
2023-09-23T06:17:37.706Z,0.00
2023-09-23T06:18:37.455Z,0.00
2023-09-23T06:19:37.483Z,0.00
2023-09-23T06:20:37.530Z,0.00
2023-09-23T06:21:37.512Z,0.00
2023-09-23T06:22:37.538Z,0.00
2023-09-23T06:23:37.596Z,0.00
2023-09-23T06:24:37.993Z,0.00
2023-09-23T06:25:37.652Z,0.00
2023-09-23T06:26:37.830Z,0.00
2023-09-23T06:27:37.635Z,0.00
2023-09-23T06:28:37.760Z,5.63
2023-09-23T06:29:37.669Z,5.63
2023-09-23T06:30:37.697Z,5.63
2023-09-23T06:31:37.713Z,5.63
2023-09-23T06:32:37.827Z,5.63
2023-09-23T06:33:37.753Z,5.63
2023-09-23T06:34:37.766Z,5.63
2023-09-23T06:35:37.803Z,5.63
2023-09-23T06:36:37.805Z,5.63
2023-09-23T06:37:37.854Z,5.63
2023-09-23T06:38:37.867Z,5.63
2023-09-23T06:39:37.874Z,5.63
2023-09-23T06:40:38.171Z,5.63
2023-09-23T06:41:37.909Z,5.63
2023-09-23T06:42:37.922Z,5.63
2023-09-23T06:43:37.955Z,5.63
2023-09-23T06:44:37.969Z,5.63
2023-09-23T06:45:38.020Z,5.63
2023-09-23T06:46:38.030Z,5.63
2023-09-23T06:47:38.255Z,5.63
2023-09-23T06:48:38.042Z,5.63
2023-09-23T06:49:38.121Z,5.63
2023-09-23T06:50:38.078Z,5.63
2023-09-23T06:51:38.105Z,5.63
2023-09-23T06:52:38.183Z,5.63
2023-09-23T06:53:38.140Z,5.63
2023-09-23T06:54:38.199Z,5.63
2023-09-23T06:55:38.177Z,5.63
2023-09-23T06:56:38.270Z,0.00
2023-09-23T06:57:38.226Z,0.00
2023-09-23T06:58:38.243Z,5.63
2023-09-23T06:59:38.262Z,0.00
2023-09-23T07:00:38.280Z,5.63
2023-09-23T07:01:38.342Z,5.63
2023-09-23T07:02:38.518Z,5.63
2023-09-23T07:03:38.412Z,5.63
2023-09-23T07:04:38.355Z,5.63
2023-09-23T07:05:38.392Z,5.63
2023-09-23T07:06:38.412Z,5.63
2023-09-23T07:07:38.467Z,5.63
2023-09-23T07:08:38.437Z,5.63
2023-09-23T07:09:38.458Z,5.63
2023-09-23T07:10:38.479Z,5.63
2023-09-23T07:11:38.512Z,5.63
2023-09-23T07:12:38.564Z,5.63
2023-09-23T07:13:38.533Z,5.63
2023-09-23T07:14:38.596Z,5.63
2023-09-23T07:15:38.573Z,5.63
2023-09-23T07:16:38.688Z,5.63
2023-09-23T07:17:38.705Z,5.63
2023-09-23T07:18:38.636Z,5.63
2023-09-23T07:19:38.664Z,5.63
2023-09-23T07:20:38.673Z,5.63
2023-09-23T07:21:38.703Z,5.63
2023-09-23T07:22:38.876Z,5.63
2023-09-23T07:23:38.768Z,5.63
2023-09-23T07:24:38.774Z,5.63
2023-09-23T07:25:38.954Z,5.63
2023-09-23T07:26:38.793Z,5.63
2023-09-23T07:27:38.814Z,5.63
2023-09-23T07:28:38.858Z,5.63
2023-09-23T07:29:38.861Z,5.63
2023-09-23T07:30:38.929Z,5.63
2023-09-23T07:31:38.895Z,5.63
2023-09-23T07:32:39.045Z,5.63
2023-09-23T07:33:38.937Z,11.25
2023-09-23T07:34:39.004Z,11.25
2023-09-23T07:35:38.975Z,11.25
2023-09-23T07:36:38.990Z,11.25
2023-09-23T07:37:39.021Z,11.25
2023-09-23T07:38:39.055Z,11.25
2023-09-23T07:39:39.044Z,11.25
2023-09-23T07:40:39.085Z,11.25
2023-09-23T07:41:39.097Z,11.25
2023-09-23T07:42:39.103Z,11.25
2023-09-23T07:43:39.125Z,11.25
2023-09-23T07:44:39.144Z,11.25
2023-09-23T07:45:39.242Z,11.25
2023-09-23T07:46:39.186Z,11.25
2023-09-23T07:47:39.285Z,16.88
2023-09-23T07:48:39.231Z,11.25
2023-09-23T07:49:39.278Z,11.25
2023-09-23T07:50:39.257Z,11.25
2023-09-23T07:51:39.282Z,16.88
2023-09-23T07:52:39.312Z,16.88
2023-09-23T07:53:39.324Z,16.88
2023-09-23T07:54:39.387Z,16.88
2023-09-23T07:55:39.363Z,16.88
2023-09-23T07:56:39.468Z,16.88
2023-09-23T07:57:39.408Z,11.25
2023-09-23T07:58:39.422Z,11.25
2023-09-23T07:59:39.486Z,11.25
2023-09-23T08:00:39.489Z,16.88
2023-09-23T08:03:36.622Z,11.25
2023-09-23T08:04:35.141Z,16.88
2023-09-23T08:05:35.127Z,16.88
2023-09-23T08:06:36.890Z,16.88
2023-09-23T08:07:35.134Z,16.88
2023-09-23T08:08:45.512Z,16.88
2023-09-23T08:09:37.055Z,22.50
2023-09-23T08:10:36.957Z,22.50
2023-09-23T08:11:35.326Z,22.50
2023-09-23T08:12:35.251Z,22.50
2023-09-23T08:13:35.269Z,22.50
2023-09-23T08:14:35.487Z,22.50
2023-09-23T08:15:35.305Z,22.50
2023-09-23T08:16:37.057Z,22.50
2023-09-23T08:17:36.097Z,22.50
2023-09-23T08:18:35.345Z,22.50
2023-09-23T08:19:35.397Z,22.50
2023-09-23T08:20:35.419Z,22.50
2023-09-23T08:21:35.411Z,22.50
2023-09-23T08:22:35.474Z,22.50
2023-09-23T08:23:35.560Z,22.50
2023-09-23T08:24:35.478Z,22.50
2023-09-23T08:25:35.488Z,22.50
2023-09-23T08:26:35.547Z,22.50
2023-09-23T08:27:35.554Z,22.50
2023-09-23T08:28:35.584Z,22.50
2023-09-23T08:29:35.564Z,22.50
2023-09-23T08:30:35.602Z,22.50
2023-09-23T08:31:35.641Z,22.50
2023-09-23T08:32:35.713Z,22.50
2023-09-23T08:33:35.722Z,22.50
2023-09-23T08:34:36.499Z,22.50
2023-09-23T08:35:35.727Z,22.50
2023-09-23T08:36:35.729Z,22.50
2023-09-23T08:37:35.729Z,22.50
2023-09-23T08:38:35.982Z,22.50
2023-09-23T08:39:35.777Z,22.50
2023-09-23T08:40:35.792Z,22.50
2023-09-23T08:41:36.076Z,22.50
2023-09-23T08:42:35.837Z,22.50
2023-09-23T08:43:35.883Z,22.50
2023-09-23T08:44:35.866Z,22.50
2023-09-23T08:45:35.936Z,22.50
2023-09-23T08:46:35.933Z,22.50
2023-09-23T08:47:36.028Z,22.50
2023-09-23T08:48:36.018Z,22.50
2023-09-23T08:49:36.010Z,22.50
2023-09-23T08:50:36.049Z,22.50
2023-09-23T08:51:36.037Z,22.50
2023-09-23T08:52:36.030Z,22.50
2023-09-23T08:53:36.226Z,22.50
2023-09-23T08:54:36.077Z,22.50
2023-09-23T08:55:36.097Z,22.50
2023-09-23T08:56:36.156Z,22.50
2023-09-23T08:57:36.152Z,22.50
2023-09-23T08:58:36.205Z,22.50
2023-09-23T08:59:36.529Z,22.50
2023-09-23T09:00:36.230Z,22.50
2023-09-23T09:01:36.250Z,22.50
2023-09-23T09:02:36.310Z,16.88
2023-09-23T09:03:36.285Z,16.88
2023-09-23T09:04:36.330Z,16.88
2023-09-23T09:05:36.396Z,16.88
2023-09-23T09:06:36.316Z,16.88
2023-09-23T09:07:36.338Z,16.88
2023-09-23T09:08:36.356Z,16.88
2023-09-23T09:09:36.447Z,22.50
2023-09-23T09:10:36.445Z,22.50
2023-09-23T09:11:36.437Z,22.50
2023-09-23T09:12:36.456Z,22.50
2023-09-23T09:13:36.514Z,22.50
2023-09-23T09:14:36.575Z,22.50
2023-09-23T09:15:36.626Z,22.50
2023-09-23T09:16:36.550Z,22.50
2023-09-23T09:17:36.718Z,22.50
2023-09-23T09:18:36.587Z,22.50
2023-09-23T09:19:36.612Z,22.50
2023-09-23T09:20:36.643Z,22.50
2023-09-23T09:21:36.634Z,22.50
2023-09-23T09:22:36.645Z,22.50
2023-09-23T09:23:36.710Z,22.50
2023-09-23T09:24:36.741Z,22.50
2023-09-23T09:25:36.700Z,22.50
2023-09-23T09:26:36.910Z,22.50
2023-09-23T09:27:36.743Z,22.50
2023-09-23T09:28:36.763Z,22.50
2023-09-23T09:29:36.811Z,28.13
2023-09-23T09:30:36.804Z,28.13
2023-09-23T09:31:36.869Z,28.13
2023-09-23T09:32:36.941Z,28.13
2023-09-23T09:33:36.888Z,28.13
2023-09-23T09:34:36.901Z,28.13
2023-09-23T09:35:36.948Z,33.75
2023-09-23T09:36:36.984Z,28.13
2023-09-23T09:37:36.950Z,28.13
2023-09-23T09:38:37.039Z,22.50
2023-09-23T09:39:37.046Z,22.50
2023-09-23T09:40:37.011Z,22.50
2023-09-23T09:41:37.054Z,22.50
2023-09-23T09:42:37.077Z,22.50
2023-09-23T09:43:37.074Z,22.50
2023-09-23T09:44:37.208Z,22.50
2023-09-23T09:45:37.114Z,16.88
2023-09-23T09:46:37.174Z,22.50
2023-09-23T09:47:37.225Z,22.50
2023-09-23T09:48:37.186Z,22.50
2023-09-23T09:49:37.247Z,22.50
2023-09-23T09:50:37.302Z,22.50
2023-09-23T09:51:37.249Z,22.50
2023-09-23T09:52:37.265Z,22.50
2023-09-23T09:53:37.344Z,16.88
2023-09-23T09:54:37.336Z,16.88
2023-09-23T09:55:37.366Z,22.50
2023-09-23T09:56:37.367Z,22.50
2023-09-23T09:57:37.366Z,16.88
2023-09-23T09:58:37.383Z,22.50
2023-09-23T09:59:37.486Z,22.50
2023-09-23T10:00:37.457Z,22.50
2023-09-23T10:01:37.499Z,16.88
2023-09-23T10:02:37.577Z,16.88
2023-09-23T10:03:37.686Z,16.88
2023-09-23T10:04:37.545Z,11.25
2023-09-23T10:05:37.599Z,16.88
2023-09-23T10:06:37.555Z,16.88
2023-09-23T10:07:37.597Z,16.88
2023-09-23T10:08:37.641Z,16.88
2023-09-23T10:09:37.656Z,16.88
2023-09-23T10:10:37.634Z,16.88
2023-09-23T10:11:37.670Z,16.88
2023-09-23T10:12:37.679Z,16.88
2023-09-23T10:13:37.714Z,16.88
2023-09-23T10:14:37.804Z,22.50
2023-09-23T10:15:37.742Z,22.50
2023-09-23T10:16:37.802Z,22.50
2023-09-23T10:17:37.837Z,22.50
2023-09-23T10:18:37.880Z,22.50
2023-09-23T10:19:37.824Z,22.50
2023-09-23T10:20:37.877Z,22.50
2023-09-23T10:21:37.877Z,22.50
2023-09-23T10:22:37.894Z,22.50
2023-09-23T10:23:37.927Z,22.50
2023-09-23T10:24:37.933Z,22.50
2023-09-23T10:25:37.957Z,22.50
2023-09-23T10:26:38.023Z,22.50
2023-09-23T10:27:37.985Z,22.50
2023-09-23T10:28:38.005Z,16.88
2023-09-23T10:29:38.105Z,16.88
2023-09-23T10:30:38.102Z,16.88
2023-09-23T10:31:38.126Z,22.50
2023-09-23T10:32:38.220Z,22.50
2023-09-23T10:33:38.140Z,22.50
2023-09-23T10:34:46.137Z,22.50
2023-09-23T10:35:38.227Z,22.50
2023-09-23T10:36:38.333Z,22.50
2023-09-23T10:37:38.222Z,22.50
2023-09-23T10:38:38.222Z,22.50
2023-09-23T10:39:38.273Z,28.13
2023-09-23T10:40:38.268Z,28.13
2023-09-23T10:41:38.391Z,28.13
2023-09-23T10:42:38.331Z,22.50
2023-09-23T10:43:38.324Z,28.13
2023-09-23T10:44:38.406Z,22.50
2023-09-23T10:45:38.364Z,22.50
2023-09-23T10:46:38.442Z,22.50
2023-09-23T10:47:38.572Z,28.13
2023-09-23T10:48:38.442Z,28.13
2023-09-23T10:49:38.459Z,28.13
2023-09-23T10:50:38.510Z,28.13
2023-09-23T10:51:38.489Z,28.13
2023-09-23T10:52:38.547Z,28.13
2023-09-23T10:53:38.539Z,28.13
2023-09-23T10:54:38.554Z,33.75
2023-09-23T10:55:39.041Z,33.75
2023-09-23T10:56:38.643Z,33.75
2023-09-23T10:57:38.624Z,33.75
2023-09-23T10:58:38.719Z,33.75
2023-09-23T10:59:38.674Z,33.75
2023-09-23T11:00:38.700Z,33.75
2023-09-23T11:01:38.741Z,39.38
2023-09-23T11:02:38.854Z,39.38
2023-09-23T11:03:38.907Z,33.75
2023-09-23T11:04:38.771Z,33.75
2023-09-23T11:05:38.852Z,33.75
2023-09-23T11:06:38.828Z,39.38
2023-09-23T11:07:38.849Z,39.38
2023-09-23T11:08:38.905Z,33.75
2023-09-23T11:09:38.878Z,28.13
2023-09-23T11:10:38.980Z,22.50
2023-09-23T11:11:38.959Z,22.50
2023-09-23T11:12:38.959Z,22.50
2023-09-23T11:13:38.959Z,28.13
2023-09-23T11:14:39.000Z,22.50
2023-09-23T11:15:39.026Z,22.50
2023-09-23T11:16:39.094Z,22.50
2023-09-23T11:17:39.105Z,28.13
2023-09-23T11:18:39.086Z,28.13
2023-09-23T11:19:39.082Z,22.50
2023-09-23T11:20:39.161Z,28.13
2023-09-23T11:21:39.175Z,28.13
2023-09-23T11:22:39.155Z,33.75
2023-09-23T11:23:39.240Z,22.50
2023-09-23T11:24:39.202Z,22.50
2023-09-23T11:25:39.222Z,22.50
2023-09-23T11:26:39.263Z,22.50
2023-09-23T11:27:39.326Z,33.75
2023-09-23T11:28:39.290Z,39.38
2023-09-23T11:29:39.351Z,45.00
2023-09-23T11:30:39.335Z,39.38
2023-09-23T11:31:39.417Z,39.38
2023-09-23T11:32:39.474Z,39.38
2023-09-23T11:33:39.390Z,39.38
2023-09-23T11:34:39.408Z,39.38
2023-09-23T11:35:39.480Z,39.38
2023-09-23T11:36:39.481Z,33.75
2023-09-23T11:37:39.479Z,33.75
2023-09-23T11:38:41.659Z,39.38
2023-09-23T11:39:39.516Z,33.75
2023-09-23T11:40:39.621Z,33.75
2023-09-23T11:41:39.626Z,33.75
2023-09-23T11:42:39.591Z,39.38
2023-09-23T11:43:39.608Z,28.13
2023-09-23T11:44:39.651Z,33.75
2023-09-23T11:45:39.745Z,39.38
2023-09-23T11:46:39.758Z,45.00
2023-09-23T11:47:39.745Z,56.25
2023-09-23T11:48:39.719Z,45.00
2023-09-23T11:49:39.741Z,45.00
2023-09-23T11:50:39.824Z,33.75
2023-09-23T11:51:39.811Z,33.75
2023-09-23T11:52:39.861Z,33.75
2023-09-23T11:53:39.863Z,39.38
2023-09-23T11:54:39.908Z,33.75
2023-09-23T11:55:39.874Z,33.75
2023-09-23T11:56:39.975Z,28.13
2023-09-23T11:57:39.975Z,33.75
2023-09-23T11:58:41.474Z,39.38
2023-09-23T11:59:40.002Z,33.75
2023-09-23T12:00:39.987Z,33.75
2023-09-23T12:01:40.008Z,39.38
2023-09-23T12:02:40.168Z,39.38
2023-09-23T12:03:40.109Z,50.63
2023-09-23T12:04:40.145Z,50.63
2023-09-23T12:05:40.110Z,39.38
2023-09-23T12:06:40.124Z,45.00
2023-09-23T12:07:40.197Z,45.00
2023-09-23T12:08:40.227Z,45.00
2023-09-23T12:09:40.186Z,50.63
2023-09-23T12:10:40.199Z,50.63
2023-09-23T12:11:40.233Z,50.63
2023-09-23T12:12:40.302Z,50.63
2023-09-23T12:13:40.271Z,56.25
2023-09-23T12:14:40.317Z,56.25
2023-09-23T12:15:40.315Z,45.00
2023-09-23T12:16:41.132Z,45.00
2023-09-23T12:17:40.480Z,45.00
2023-09-23T12:18:40.383Z,39.38
2023-09-23T12:19:40.402Z,28.13
2023-09-23T12:20:40.461Z,28.13
2023-09-23T12:21:40.472Z,28.13
2023-09-23T12:22:40.478Z,39.38
2023-09-23T12:23:40.589Z,50.63
2023-09-23T12:24:40.557Z,50.63
2023-09-23T12:25:40.540Z,45.00
2023-09-23T12:26:40.661Z,39.38
2023-09-23T12:27:40.587Z,45.00
2023-09-23T12:28:40.646Z,56.25
2023-09-23T12:29:40.638Z,50.63
2023-09-23T12:30:40.665Z,50.63
2023-09-23T12:31:40.666Z,56.25
2023-09-23T12:32:40.776Z,56.25
2023-09-23T12:33:40.721Z,56.25
2023-09-23T12:34:40.791Z,45.00
2023-09-23T12:35:40.810Z,50.63
2023-09-23T12:36:40.790Z,61.88
2023-09-23T12:37:40.842Z,61.88
2023-09-23T12:38:40.909Z,67.50
2023-09-23T12:39:40.916Z,56.25
2023-09-23T12:40:40.899Z,56.25
2023-09-23T12:41:40.950Z,45.00
2023-09-23T12:42:40.938Z,33.75
2023-09-23T12:43:40.959Z,28.13
2023-09-23T12:44:41.116Z,28.13
2023-09-23T12:45:41.017Z,28.13
2023-09-23T12:46:41.033Z,28.13
2023-09-23T12:47:56.140Z,28.13
2023-09-23T12:48:41.057Z,28.13
2023-09-23T12:49:41.120Z,28.13
2023-09-23T12:50:41.178Z,33.75
2023-09-23T12:51:41.184Z,33.75
2023-09-23T12:52:41.149Z,39.38
2023-09-23T12:53:41.250Z,39.38
2023-09-23T12:54:41.191Z,45.00
2023-09-23T12:55:41.222Z,45.00
2023-09-23T12:56:41.311Z,45.00
2023-09-23T12:57:41.332Z,45.00
2023-09-23T12:58:41.277Z,50.63
2023-09-23T12:59:41.299Z,61.88
2023-09-23T13:00:41.323Z,61.88
2023-09-23T13:01:41.349Z,45.00
2023-09-23T13:02:41.500Z,56.25
2023-09-23T13:03:41.469Z,45.00
2023-09-23T13:04:41.434Z,39.38
2023-09-23T13:05:41.466Z,39.38
2023-09-23T13:06:41.493Z,45.00
2023-09-23T13:07:41.539Z,56.25
2023-09-23T13:08:41.625Z,56.25
2023-09-23T13:09:41.558Z,56.25